Time;durP1;ratioP1;P1;durP2;ratioP2;P2;SDS_P1;SDS_P2;PMS_P1;PMS_P2;Temp;Humidity;BMP_temperature;BMP_pressure;BME280_temperature;BME280_humidity;BME280_pressure;Samples;Min_cycle;Max_cycle;Signal;HPM_P1;HPM_P2
2022/01/10 00:00:22;;;;;;;9.27;7.07;;;;;;;1.74;100.00;95580.47;5072265;27;103843;-55
2022/01/10 00:02:52;;;;;;;9.13;6.87;;;;;;;1.86;100.00;95578.78;5073145;27;102424;-55
2022/01/10 00:05:19;;;;;;;10.03;7.00;;;;;;;1.92;100.00;95576.06;5072184;27;102041;-55
2022/01/10 00:07:47;;;;;;;9.83;6.67;;;;;;;1.78;100.00;95574.59;5072153;27;105517;-56
2022/01/10 00:10:14;;;;;;;8.33;6.37;;;;;;;1.79;100.00;95576.22;5072748;27;103184;-55
2022/01/10 00:12:41;;;;;;;8.03;5.80;;;;;;;1.79;100.00;95580.63;5072225;27;101891;-56
2022/01/10 00:15:11;;;;;;;9.50;5.77;;;;;;;1.78;100.00;95573.78;5073481;27;102633;-57
2022/01/10 00:17:40;;;;;;;7.63;5.27;;;;;;;1.70;100.00;95579.31;5074884;27;105348;-56
2022/01/10 00:20:09;;;;;;;6.57;5.43;;;;;;;1.69;100.00;95582.97;5073467;27;102887;-57
2022/01/10 00:22:37;;;;;;;9.63;5.97;;;;;;;1.69;100.00;95585.59;5071010;27;103963;-56
2022/01/10 00:25:05;;;;;;;6.93;5.57;;;;;;;1.67;100.00;95577.13;5071573;27;101837;-56
2022/01/10 00:27:33;;;;;;;6.60;5.53;;;;;;;1.70;100.00;95576.72;5071868;27;105178;-56
2022/01/10 00:30:00;;;;;;;9.33;6.70;;;;;;;1.63;100.00;95584.63;5071019;27;105349;-57
2022/01/10 00:32:29;;;;;;;10.53;6.70;;;;;;;1.55;100.00;95594.56;5071814;27;101882;-55
2022/01/10 00:34:56;;;;;;;7.60;6.13;;;;;;;1.42;100.00;95590.22;5071784;27;105634;-54
2022/01/10 00:37:23;;;;;;;8.43;6.33;;;;;;;1.43;100.00;95591.81;5074078;27;105378;-56
2022/01/10 00:39:49;;;;;;;7.77;6.93;;;;;;;1.50;100.00;95589.97;5071449;27;104993;-57
2022/01/10 00:42:18;;;;;;;7.83;6.50;;;;;;;1.38;100.00;95596.09;5071064;27;105223;-56
2022/01/10 00:44:50;;;;;;;8.90;7.03;;;;;;;1.37;100.00;95590.06;5071642;27;102108;-56
2022/01/10 00:47:18;;;;;;;10.43;7.40;;;;;;;1.51;100.00;95596.00;5071687;27;104857;-56
2022/01/10 00:49:47;;;;;;;8.30;6.50;;;;;;;1.58;100.00;95600.19;5070703;27;103840;-57
2022/01/10 00:52:15;;;;;;;9.10;6.63;;;;;;;1.51;100.00;95604.66;5070303;27;102028;-55
2022/01/10 00:54:42;;;;;;;9.27;6.63;;;;;;;1.53;100.00;95609.72;5071553;27;105449;-57
2022/01/10 00:57:10;;;;;;;9.93;6.43;;;;;;;1.53;100.00;95601.84;5070775;27;105157;-57
2022/01/10 00:59:37;;;;;;;8.73;6.63;;;;;;;1.53;100.00;95605.25;5074680;27;101838;-56
2022/01/10 01:02:06;;;;;;;8.17;6.40;;;;;;;1.57;100.00;95610.84;5070555;27;105167;-56
2022/01/10 01:04:33;;;;;;;7.43;5.90;;;;;;;1.52;100.00;95616.75;5071459;27;101892;-55
2022/01/10 01:07:02;;;;;;;7.27;5.53;;;;;;;1.51;100.00;95625.63;5071195;27;104840;-56
2022/01/10 01:09:31;;;;;;;8.73;6.10;;;;;;;1.53;100.00;95625.44;5070552;27;105282;-57
2022/01/10 01:12:16;;;;;;;9.97;6.20;;;;;;;1.58;100.00;95636.06;5071121;27;102077;-56
2022/01/10 01:14:55;;;;;;;9.40;6.67;;;;;;;1.57;100.00;95630.00;5070876;27;105442;-56
2022/01/10 01:17:46;;;;;;;7.57;6.33;;;;;;;1.49;100.00;95637.34;5070465;27;105509;-56
2022/01/10 01:20:31;;;;;;;8.43;7.20;;;;;;;1.54;100.00;95640.13;5072680;27;101716;-56
2022/01/10 01:25:44;;;;;;;13.00;9.17;;;;;;;1.65;100.00;95652.53;5070945;27;101786;-56
2022/01/10 01:28:11;;;;;;;10.80;8.07;;;;;;;1.73;100.00;95660.94;5070707;27;105613;-56
2022/01/10 01:30:38;;;;;;;9.90;8.37;;;;;;;1.68;100.00;95659.94;5070303;27;105479;-56
2022/01/10 01:33:05;;;;;;;11.63;8.53;;;;;;;1.62;100.00;95659.00;5071077;27;101880;-57
2022/01/10 01:35:34;;;;;;;10.17;7.70;;;;;;;1.68;100.00;95659.94;5070809;27;104029;-56
2022/01/10 01:38:03;;;;;;;10.53;7.87;;;;;;;1.75;100.00;95668.59;5069957;27;105295;-56
2022/01/10 01:40:32;;;;;;;8.40;7.23;;;;;;;1.77;100.00;95667.38;5070858;27;101952;-55
2022/01/10 01:42:59;;;;;;;12.67;8.40;;;;;;;1.87;100.00;95672.13;5070213;27;105148;-56
2022/01/10 01:45:38;;;;;;;10.80;7.53;;;;;;;1.85;100.00;95668.88;5073489;27;105006;-56
2022/01/10 01:48:06;;;;;;;8.50;7.60;;;;;;;1.82;100.00;95666.72;5070580;27;105015;-54
2022/01/10 01:50:33;;;;;;;10.13;7.67;;;;;;;1.86;100.00;95681.00;5069974;27;105249;-57
2022/01/10 01:53:01;;;;;;;10.27;7.53;;;;;;;1.91;100.00;95676.72;5071588;27;101797;-57
2022/01/10 01:55:29;;;;;;;9.73;7.00;;;;;;;1.90;100.00;95682.97;5070048;27;105626;-56
2022/01/10 01:57:57;;;;;;;9.80;7.40;;;;;;;1.98;100.00;95687.94;5069766;27;105012;-56
2022/01/10 02:00:25;;;;;;;8.47;7.20;;;;;;;2.04;100.00;95694.97;5070606;27;101908;-57
2022/01/10 02:02:56;;;;;;;9.23;7.77;;;;;;;2.03;100.00;95692.56;5070413;27;103920;-55
2022/01/10 02:05:27;;;;;;;8.87;7.80;;;;;;;1.94;100.00;95691.22;5069822;27;105366;-56
2022/01/10 02:07:54;;;;;;;8.20;7.00;;;;;;;1.85;100.00;95690.66;5075075;27;101884;-56
2022/01/10 02:10:23;;;;;;;8.00;6.93;;;;;;;1.73;100.00;95699.44;5069685;27;104771;-57
2022/01/10 02:12:52;;;;;;;9.07;7.00;;;;;;;1.93;100.00;95702.72;5070599;27;101824;-56
2022/01/10 02:15:30;;;;;;;10.07;7.27;;;;;;;1.83;100.00;95702.38;5070204;27;105286;-55
2022/01/10 02:17:59;;;;;;;10.10;7.97;;;;;;;1.75;100.00;95711.31;5069591;27;104825;-56
2022/01/10 02:20:31;;;;;;;14.23;10.07;;;;;;;1.68;100.00;95714.97;5069934;27;101879;-57
2022/01/10 02:22:58;;;;;;;13.77;10.83;;;;;;;1.81;100.00;95712.28;5069262;27;104055;-55
2022/01/10 02:25:49;;;;;;;14.27;10.13;;;;;;;1.85;100.00;95726.56;5068446;27;104455;-56
2022/01/10 02:28:22;;;;;;;11.10;9.27;;;;;;;1.96;100.00;95725.88;5068899;27;101903;-56
2022/01/10 02:30:55;;;;;;;11.43;8.57;;;;;;;1.87;100.00;95722.72;5074274;27;102419;-56
2022/01/10 02:33:22;;;;;;;9.27;7.57;;;;;;;1.90;100.00;95735.41;5069744;27;102123;-56
2022/01/10 02:35:59;;;;;;;8.07;6.53;;;;;;;1.88;100.00;95726.16;5069837;27;104858;-56
2022/01/10 02:38:28;;;;;;;7.80;6.87;;;;;;;2.02;100.00;95725.03;5068856;27;105447;-56
2022/01/10 02:40:57;;;;;;;8.60;6.80;;;;;;;1.96;100.00;95726.69;5069693;27;101743;-57
2022/01/10 02:43:24;;;;;;;7.90;5.97;;;;;;;1.91;100.00;95741.47;5069814;27;104976;-56
2022/01/10 02:45:51;;;;;;;8.53;6.47;;;;;;;1.96;100.00;95733.72;5069197;27;105694;-56
2022/01/10 02:48:18;;;;;;;7.00;5.93;;;;;;;1.92;100.00;95738.59;5069789;27;102053;-56
2022/01/10 02:50:46;;;;;;;6.93;6.03;;;;;;;1.84;100.00;95735.44;5072506;27;104804;-57
2022/01/10 02:53:14;;;;;;;7.37;6.37;;;;;;;1.91;100.00;95742.25;5069448;27;101908;-56
2022/01/10 02:55:42;;;;;;;8.57;6.63;;;;;;;1.95;100.00;95737.38;5069278;27;104965;-56
2022/01/10 02:58:11;;;;;;;9.23;6.50;;;;;;;1.98;100.00;95742.22;5069122;27;104674;-57
2022/01/10 03:00:38;;;;;;;7.40;6.70;;;;;;;1.99;100.00;95734.13;5069493;27;101874;-56
2022/01/10 03:03:07;;;;;;;7.53;6.17;;;;;;;1.97;100.00;95743.22;5069563;27;104783;-57
2022/01/10 03:05:35;;;;;;;7.23;6.53;;;;;;;1.99;100.00;95749.88;5069021;27;105436;-56
2022/01/10 03:08:03;;;;;;;8.90;6.20;;;;;;;1.97;100.00;95751.09;5069239;27;101924;-56
2022/01/10 03:10:34;;;;;;;8.07;6.43;;;;;;;1.93;100.00;95752.53;5069397;27;105037;-56
2022/01/10 03:13:02;;;;;;;7.23;6.27;;;;;;;1.95;100.00;95753.91;5072316;27;105614;-56
2022/01/10 03:15:29;;;;;;;7.83;6.97;;;;;;;1.97;100.00;95753.72;5071027;27;104927;-57
2022/01/10 03:17:57;;;;;;;9.57;6.30;;;;;;;2.09;100.00;95763.28;5072425;27;105385;-56
2022/01/10 03:20:24;;;;;;;7.27;6.33;;;;;;;1.88;100.00;95761.03;5073043;27;101864;-57
2022/01/10 03:22:52;;;;;;;7.37;6.67;;;;;;;1.78;100.00;95763.31;5072953;27;105233;-56
2022/01/10 03:25:19;;;;;;;6.90;6.20;;;;;;;1.87;100.00;95763.88;5072015;27;105783;-55
2022/01/10 03:27:55;;;;;;;6.73;6.07;;;;;;;1.85;100.00;95765.88;5072881;27;101934;-56
2022/01/10 03:30:22;;;;;;;7.20;6.50;;;;;;;1.81;100.00;95772.56;5073050;27;105104;-55
2022/01/10 03:32:51;;;;;;;7.73;6.47;;;;;;;1.93;100.00;95774.31;5072012;27;105322;-55
2022/01/10 03:35:26;;;;;;;7.40;6.70;;;;;;;1.95;100.00;95774.91;5076278;27;102325;-56
2022/01/10 03:37:54;;;;;;;6.87;5.93;;;;;;;1.77;100.00;95774.00;5071426;27;105396;-56
2022/01/10 03:40:23;;;;;;;8.03;6.30;;;;;;;1.79;100.00;95777.19;5072648;27;101840;-57
2022/01/10 03:42:54;;;;;;;8.27;6.50;;;;;;;1.84;100.00;95780.00;5072513;27;104790;-56
2022/01/10 03:45:21;;;;;;;8.57;6.60;;;;;;;1.80;100.00;95779.63;5072020;27;105790;-56
2022/01/10 03:47:48;;;;;;;7.40;6.67;;;;;;;1.83;100.00;95792.31;5072543;27;101862;-57
2022/01/10 03:50:15;;;;;;;7.10;6.17;;;;;;;1.90;100.00;95787.84;5072307;27;105636;-57
2022/01/10 03:52:42;;;;;;;7.67;6.73;;;;;;;1.85;100.00;95792.91;5071580;27;105577;-56
2022/01/10 03:55:10;;;;;;;8.60;6.83;;;;;;;1.91;100.00;95796.50;5072474;27;101859;-57
2022/01/10 03:57:38;;;;;;;7.13;6.43;;;;;;;1.86;100.00;95794.50;5075148;27;105350;-57
2022/01/10 04:00:10;;;;;;;7.37;6.63;;;;;;;1.83;100.00;95796.75;5072394;27;101750;-56
2022/01/10 04:02:48;;;;;;;7.70;6.90;;;;;;;1.91;100.00;95799.91;5070392;27;102155;-56
2022/01/10 04:05:17;;;;;;;7.67;6.83;;;;;;;1.95;100.00;95802.91;5071576;27;103861;-56
2022/01/10 04:07:43;;;;;;;8.43;7.43;;;;;;;1.93;100.00;95811.00;5072127;27;101854;-57
2022/01/10 04:10:11;;;;;;;7.87;6.53;;;;;;;1.84;100.00;95806.22;5072020;27;104875;-56
2022/01/10 04:12:38;;;;;;;7.60;6.50;;;;;;;1.91;100.00;95810.41;5071474;27;104110;-56
2022/01/10 04:15:09;;;;;;;8.10;7.10;;;;;;;1.98;100.00;95816.41;5072124;27;101871;-57
2022/01/10 04:17:36;;;;;;;8.33;7.10;;;;;;;2.05;100.00;95819.00;5072081;27;105468;-56
2022/01/10 04:20:04;;;;;;;8.57;7.70;;;;;;;2.10;100.00;95814.75;5076747;27;102848;-56
2022/01/10 04:22:31;;;;;;;8.23;7.30;;;;;;;2.11;100.00;95815.53;5071722;27;105445;-56
2022/01/10 04:25:00;;;;;;;8.37;7.47;;;;;;;2.11;100.00;95820.78;5071228;27;105330;-57
2022/01/10 04:27:31;;;;;;;9.43;7.83;;;;;;;2.09;100.00;95823.59;5070432;27;101887;-56
2022/01/10 04:29:59;;;;;;;8.47;7.17;;;;;;;2.07;100.00;95823.00;5072013;27;104831;-57
2022/01/10 04:32:29;;;;;;;8.90;7.50;;;;;;;2.04;100.00;95825.25;5070942;27;105196;-56
2022/01/10 04:34:56;;;;;;;8.70;7.20;;;;;;;1.96;100.00;95828.13;5072069;27;101781;-55
2022/01/10 04:37:24;;;;;;;7.87;6.97;;;;;;;1.92;100.00;95832.19;5070998;27;105470;-56
2022/01/10 04:39:51;;;;;;;11.90;7.80;;;;;;;1.85;100.00;95834.03;5071142;27;104143;-57
2022/01/10 04:42:18;;;;;;;8.20;7.00;;;;;;;1.92;100.00;95847.91;5075115;27;101718;-56
2022/01/10 04:44:45;;;;;;;9.17;7.33;;;;;;;1.97;100.00;95845.47;5070508;27;105608;-56
2022/01/10 04:47:12;;;;;;;10.27;7.73;;;;;;;2.01;100.00;95844.03;5070764;27;101948;-56
2022/01/10 04:50:03;;;;;;;8.80;7.90;;;;;;;1.99;100.00;95844.25;5071014;27;105434;-56
2022/01/10 04:52:30;;;;;;;8.93;7.67;;;;;;;1.85;100.00;95849.75;5069399;27;106079;-56
2022/01/10 04:54:57;;;;;;;8.87;7.60;;;;;;;1.91;100.00;95851.56;5072266;27;101826;-56
2022/01/10 04:57:24;;;;;;;9.20;8.07;;;;;;;1.90;100.00;95858.63;5071288;27;105436;-57
2022/01/10 04:59:51;;;;;;;8.03;7.20;;;;;;;1.86;100.00;95859.25;5071868;27;102959;-55
2022/01/10 05:02:19;;;;;;;8.50;7.70;;;;;;;1.87;100.00;95866.09;5074836;27;101949;-55
2022/01/10 05:04:48;;;;;;;9.57;8.13;;;;;;;1.92;100.00;95869.69;5070604;27;105658;-57
2022/01/10 05:07:15;;;;;;;8.47;7.67;;;;;;;1.99;100.00;95877.53;5071238;27;101824;-56
2022/01/10 05:09:44;;;;;;;8.93;8.03;;;;;;;1.92;100.00;95882.00;5071281;27;104546;-55
2022/01/10 05:12:14;;;;;;;10.60;7.90;;;;;;;1.93;100.00;95896.72;5070412;27;105465;-55
2022/01/10 05:14:41;;;;;;;9.30;8.30;;;;;;;1.97;100.00;95892.66;5070835;27;101846;-57
2022/01/10 05:17:09;;;;;;;10.10;8.40;;;;;;;1.96;100.00;95898.91;5070408;27;105641;-56
2022/01/10 05:19:36;;;;;;;9.30;8.37;;;;;;;1.96;100.00;95901.53;5070104;27;105522;-55
2022/01/10 05:22:05;;;;;;;10.10;9.10;;;;;;;1.94;100.00;95901.75;5070732;27;101933;-55
2022/01/10 05:24:34;;;;;;;9.97;8.97;;;;;;;1.91;100.00;95901.38;5073493;27;105154;-56
2022/01/10 05:27:01;;;;;;;9.83;8.30;;;;;;;1.92;100.00;95908.22;5070805;27;101999;-55
2022/01/10 05:29:28;;;;;;;9.40;8.40;;;;;;;1.94;100.00;95914.03;5070840;27;104470;-57
2022/01/10 05:31:55;;;;;;;8.93;8.03;;;;;;;1.98;100.00;95910.00;5070399;27;105033;-56
2022/01/10 05:34:56;;;;;;;9.57;8.17;;;;;;;1.96;100.00;95917.25;5070651;27;101865;-56
2022/01/10 05:37:24;;;;;;;8.83;7.93;;;;;;;1.94;100.00;95924.53;5069729;27;105481;-56
2022/01/10 05:39:51;;;;;;;9.87;8.53;;;;;;;1.95;100.00;95926.13;5070252;27;105693;-56
2022/01/10 05:42:19;;;;;;;8.87;7.93;;;;;;;1.91;100.00;95932.84;5070657;27;102030;-57
2022/01/10 05:44:47;;;;;;;9.93;9.00;;;;;;;1.89;100.00;95938.28;5070278;27;105198;-54
2022/01/10 05:47:15;;;;;;;10.80;9.00;;;;;;;1.75;100.00;95936.69;5073471;27;105465;-55
2022/01/10 05:49:47;;;;;;;9.57;8.50;;;;;;;1.83;100.00;95946.16;5070518;27;104787;-56
2022/01/10 05:52:16;;;;;;;10.13;9.13;;;;;;;1.89;100.00;95935.66;5069893;27;105072;-55
2022/01/10 05:54:49;;;;;;;10.13;9.20;;;;;;;1.91;100.00;95943.31;5070450;27;101903;-56
2022/01/10 05:57:16;;;;;;;10.53;9.47;;;;;;;1.83;100.00;95943.53;5070116;27;104285;-56
2022/01/10 05:59:49;;;;;;;10.23;9.03;;;;;;;1.64;100.00;95949.66;5069871;27;105650;-55
2022/01/10 06:02:16;;;;;;;9.93;8.93;;;;;;;1.63;100.00;95953.25;5070344;27;101887;-56
2022/01/10 06:04:43;;;;;;;9.80;8.77;;;;;;;1.50;100.00;95958.53;5070472;27;105176;-55
2022/01/10 06:07:34;;;;;;;10.43;9.17;;;;;;;1.44;100.00;95960.19;5069663;27;104959;-56
2022/01/10 06:10:02;;;;;;;10.97;9.10;;;;;;;1.41;100.00;95965.81;5073875;27;101904;-55
2022/01/10 06:12:30;;;;;;;11.43;9.53;;;;;;;1.42;100.00;95971.88;5069609;27;104558;-55
2022/01/10 06:14:57;;;;;;;11.63;9.83;;;;;;;1.34;100.00;95964.22;5070021;27;101910;-55
2022/01/10 06:17:25;;;;;;;11.83;10.17;;;;;;;1.32;100.00;95974.88;5069965;27;105009;-56
2022/01/10 06:19:52;;;;;;;11.43;10.17;;;;;;;1.39;100.00;95983.56;5068519;27;105049;-56
2022/01/10 06:22:19;;;;;;;10.43;9.30;;;;;;;1.43;100.00;95983.97;5069098;27;101905;-56
2022/01/10 06:24:47;;;;;;;11.50;10.30;;;;;;;1.49;100.00;95983.91;5069988;27;104959;-57
2022/01/10 06:27:20;;;;;;;13.33;10.63;;;;;;;1.58;100.00;95992.41;5068263;27;104974;-56
2022/01/10 06:29:47;;;;;;;12.53;10.40;;;;;;;1.66;100.00;96000.03;5068963;27;102164;-56
2022/01/10 06:32:14;;;;;;;12.07;9.80;;;;;;;1.68;100.00;96003.25;5071718;27;105071;-56
2022/01/10 06:34:41;;;;;;;11.63;10.00;;;;;;;1.69;100.00;96002.25;5069967;27;101881;-56
2022/01/10 06:37:09;;;;;;;10.93;9.83;;;;;;;1.71;100.00;96002.84;5068101;27;105042;-56
2022/01/10 06:39:42;;;;;;;10.37;9.27;;;;;;;1.68;100.00;96013.72;5069196;27;104728;-57
2022/01/10 06:42:09;;;;;;;11.13;9.90;;;;;;;1.52;100.00;96016.78;5069819;27;101804;-56
2022/01/10 06:44:38;;;;;;;10.87;9.53;;;;;;;1.62;100.00;96023.22;5069672;27;104910;-56
2022/01/10 06:47:06;;;;;;;11.33;9.53;;;;;;;1.67;100.00;96033.91;5068653;27;105187;-57
2022/01/10 06:49:33;;;;;;;11.43;9.37;;;;;;;1.58;100.00;96034.31;5068711;27;101855;-56
2022/01/10 06:52:00;;;;;;;10.90;9.73;;;;;;;1.50;100.00;96039.75;5069208;27;105235;-56
2022/01/10 06:54:27;;;;;;;11.33;10.13;;;;;;;1.56;100.00;96046.81;5072008;27;101907;-55
2022/01/10 06:56:58;;;;;;;13.30;9.90;;;;;;;1.63;100.00;96048.41;5068004;27;104957;-56
2022/01/10 06:59:26;;;;;;;11.13;9.90;;;;;;;1.65;100.00;96050.84;5068896;27;104802;-56
2022/01/10 07:01:57;;;;;;;12.77;11.03;;;;;;;1.74;100.00;96055.66;5069413;27;101915;-55
2022/01/10 07:04:24;;;;;;;12.07;10.80;;;;;;;1.79;100.00;96062.91;5068513;27;104734;-57
2022/01/10 07:06:52;;;;;;;11.87;10.23;;;;;;;1.84;100.00;96070.97;5067802;27;104934;-57
2022/01/10 07:09:22;;;;;;;12.80;11.50;;;;;;;1.86;100.00;96074.22;5068658;27;102030;-56
2022/01/10 07:12:00;;;;;;;12.77;10.60;;;;;;;1.88;100.00;96088.72;5068254;27;105190;-56
2022/01/10 07:14:35;;;;;;;13.23;10.97;;;;;;;2.01;100.00;96090.50;5071422;27;105316;-56
2022/01/10 07:17:05;;;;;;;13.87;11.17;;;;;;;2.09;100.00;96095.53;5068108;27;104185;-56
2022/01/10 07:19:32;;;;;;;12.63;10.47;;;;;;;2.00;100.00;96091.50;5067871;27;105812;-57
2022/01/10 07:22:00;;;;;;;10.60;9.50;;;;;;;1.91;100.00;96103.25;5068004;27;102203;-54
2022/01/10 07:24:27;;;;;;;9.97;8.63;;;;;;;1.79;100.00;96108.28;5068977;27;104754;-56
2022/01/10 07:26:54;;;;;;;9.67;8.47;;;;;;;1.73;100.00;96114.34;5068686;27;105755;-56
2022/01/10 07:29:23;;;;;;;11.97;9.00;;;;;;;1.64;100.00;96123.41;5069222;27;101824;-56
2022/01/10 07:31:50;;;;;;;11.73;8.70;;;;;;;1.66;100.00;96121.41;5069146;27;105638;-56
2022/01/10 07:34:18;;;;;;;9.77;8.70;;;;;;;1.68;100.00;96132.47;5068006;27;106446;-56
2022/01/10 07:36:46;;;;;;;11.77;8.07;;;;;;;1.69;100.00;96133.28;5072622;27;102091;-57
2022/01/10 07:39:13;;;;;;;11.30;8.33;;;;;;;1.77;100.00;96126.03;5068034;27;105175;-56
2022/01/10 07:41:42;;;;;;;10.83;8.70;;;;;;;1.75;100.00;96133.28;5068977;27;101814;-56
2022/01/10 07:44:15;;;;;;;9.80;7.70;;;;;;;1.81;100.00;96139.53;5068931;27;104706;-56
2022/01/10 07:46:42;;;;;;;10.63;7.63;;;;;;;1.92;100.00;96146.78;5068400;27;105196;-56
2022/01/10 07:49:09;;;;;;;10.23;7.73;;;;;;;1.88;100.00;96142.97;5068294;27;101978;-56
2022/01/10 07:51:38;;;;;;;8.13;7.27;;;;;;;1.92;100.00;96144.97;5068733;27;104052;-56
2022/01/10 07:54:05;;;;;;;11.93;7.97;;;;;;;2.02;100.00;96145.38;5067983;27;105700;-55
2022/01/10 07:56:32;;;;;;;14.47;8.77;;;;;;;2.08;100.00;96151.63;5068479;27;101931;-56
2022/01/10 07:58:59;;;;;;;12.67;8.70;;;;;;;2.06;100.00;96149.19;5071264;27;104082;-55
2022/01/10 08:01:27;;;;;;;12.23;8.27;;;;;;;2.15;100.00;96155.03;5070337;27;101839;-56
2022/01/10 08:03:53;;;;;;;12.20;9.17;;;;;;;2.11;100.00;96156.44;5072206;27;105385;-56
2022/01/10 08:06:21;;;;;;;13.10;8.00;;;;;;;1.96;100.00;96168.97;5071551;27;105744;-56
2022/01/10 08:08:50;;;;;;;9.63;8.57;;;;;;;2.10;100.00;96175.81;5072241;27;101826;-54
2022/01/10 08:11:17;;;;;;;12.57;9.63;;;;;;;2.05;100.00;96175.63;5072045;27;104841;-55
2022/01/10 08:13:44;;;;;;;13.03;9.03;;;;;;;1.95;100.00;96173.41;5071380;27;104343;-56
2022/01/10 08:16:11;;;;;;;11.77;8.60;;;;;;;1.92;100.00;96186.91;5071912;27;101930;-56
2022/01/10 08:18:39;;;;;;;11.30;8.00;;;;;;;1.94;100.00;96189.34;5071928;27;105289;-56
2022/01/10 08:21:07;;;;;;;11.37;8.90;;;;;;;1.82;100.00;96198.81;5073954;27;105268;-56
2022/01/10 08:23:34;;;;;;;10.77;8.40;;;;;;;1.80;100.00;96195.59;5072457;27;102402;-55
2022/01/10 08:26:08;;;;;;;11.03;8.37;;;;;;;1.77;100.00;96202.06;5069954;27;104955;-56
2022/01/10 08:28:35;;;;;;;12.77;8.53;;;;;;;1.80;100.00;96200.84;5071820;27;101832;-56
2022/01/10 08:31:02;;;;;;;12.63;8.20;;;;;;;1.83;100.00;96200.44;5073285;27;102738;-55
2022/01/10 08:33:29;;;;;;;13.97;9.80;;;;;;;1.82;100.00;96206.69;5071235;27;105039;-55
2022/01/10 08:35:56;;;;;;;14.50;9.83;;;;;;;1.84;100.00;96217.75;5071621;27;101941;-56
2022/01/10 08:38:27;;;;;;;13.60;9.30;;;;;;;1.89;100.00;96213.56;5071350;27;106440;-56
2022/01/10 08:40:54;;;;;;;13.97;9.50;;;;;;;1.97;100.00;96228.28;5072423;27;102574;-57
2022/01/10 08:43:22;;;;;;;14.20;9.13;;;;;;;1.96;100.00;96226.63;5074021;27;101852;-56
2022/01/10 08:45:49;;;;;;;12.40;8.97;;;;;;;2.01;100.00;96229.47;5070562;27;106395;-56
2022/01/10 08:48:17;;;;;;;11.17;8.97;;;;;;;2.07;100.00;96234.72;5071748;27;101943;-56
2022/01/10 08:50:45;;;;;;;15.83;10.97;;;;;;;2.06;100.00;96248.84;5071198;27;106143;-56
2022/01/10 08:53:12;;;;;;;15.40;10.03;;;;;;;2.05;100.00;96249.06;5070049;27;105145;-55
2022/01/10 08:55:39;;;;;;;13.07;8.87;;;;;;;2.06;100.00;96253.28;5070530;27;101905;-57
2022/01/10 08:58:07;;;;;;;12.03;9.23;;;;;;;2.03;100.00;96262.34;5071146;27;104843;-57
2022/01/10 09:00:35;;;;;;;12.90;10.10;;;;;;;2.05;100.00;96268.22;5070252;27;105364;-55
2022/01/10 09:03:03;;;;;;;14.20;10.50;;;;;;;1.99;100.00;96270.84;5073709;27;101878;-57
2022/01/10 09:05:32;;;;;;;14.10;10.10;;;;;;;2.04;100.00;96274.47;5071417;27;102508;-57
2022/01/10 09:08:03;;;;;;;18.50;10.80;;;;;;;2.18;100.00;96289.22;5070323;27;101852;-56
2022/01/10 09:10:30;;;;;;;14.60;11.07;;;;;;;2.20;100.00;96292.44;5071703;27;102461;-56
2022/01/10 09:12:57;;;;;;;13.00;10.90;;;;;;;2.06;100.00;96293.44;5068532;27;105674;-56
2022/01/10 09:15:24;;;;;;;13.80;10.87;;;;;;;2.07;100.00;96307.38;5070286;27;101947;-57
2022/01/10 09:17:53;;;;;;;16.70;11.17;;;;;;;2.04;100.00;96307.75;5070037;27;105924;-56
2022/01/10 09:20:21;;;;;;;14.57;10.53;;;;;;;2.11;100.00;96308.56;5069568;27;106569;-57
2022/01/10 09:22:48;;;;;;;17.47;11.60;;;;;;;2.07;100.00;96312.63;5069906;27;101967;-56
2022/01/10 09:25:15;;;;;;;18.23;12.27;;;;;;;2.10;100.00;96310.41;5072835;27;104773;-56
2022/01/10 09:27:43;;;;;;;15.33;11.13;;;;;;;2.19;100.00;96317.03;5071366;27;101750;-55
2022/01/10 09:30:12;;;;;;;15.97;11.37;;;;;;;2.24;100.00;96313.84;5069924;27;104978;-56
2022/01/10 09:32:39;;;;;;;17.73;10.73;;;;;;;2.21;100.00;96322.09;5069255;27;105289;-56
2022/01/10 09:35:09;;;;;;;14.97;10.87;;;;;;;2.28;100.00;96321.09;5069630;27;101922;-56
2022/01/10 09:37:36;;;;;;;14.60;10.53;;;;;;;2.23;100.00;96328.75;5069250;27;105061;-55
2022/01/10 09:40:04;;;;;;;15.60;10.90;;;;;;;2.21;100.00;96332.59;5069159;27;105325;-56
2022/01/10 09:42:33;;;;;;;15.87;11.53;;;;;;;2.32;100.00;96329.38;5069762;27;101972;-57
2022/01/10 09:45:00;;;;;;;17.07;9.70;;;;;;;2.42;100.00;96338.47;5069408;27;105355;-54
2022/01/10 09:47:27;;;;;;;13.57;10.00;;;;;;;2.48;100.00;96344.72;5073473;27;105911;-55
2022/01/10 09:49:54;;;;;;;14.90;10.47;;;;;;;2.53;100.00;96345.75;5069694;27;105509;-56
2022/01/10 09:52:23;;;;;;;17.73;11.77;;;;;;;2.40;100.00;96344.94;5069277;27;105112;-56
2022/01/10 09:54:52;;;;;;;20.17;13.30;;;;;;;2.45;100.00;96350.38;5070826;27;101940;-56
2022/01/10 09:57:19;;;;;;;16.43;12.70;;;;;;;2.46;100.00;96357.25;5069476;27;105677;-56
2022/01/10 09:59:47;;;;;;;16.40;10.87;;;;;;;2.40;100.00;96358.06;5070067;27;102588;-56
2022/01/10 10:02:15;;;;;;;18.87;11.70;;;;;;;2.37;100.00;96356.66;5069471;27;101854;-54
2022/01/10 10:04:43;;;;;;;19.23;11.77;;;;;;;2.34;100.00;96356.22;5069401;27;104036;-56
2022/01/10 10:07:11;;;;;;;18.63;11.83;;;;;;;2.23;100.00;96367.28;5069979;27;102689;-56
2022/01/10 10:09:40;;;;;;;19.40;11.80;;;;;;;2.24;100.00;96377.59;5072714;27;102143;-56
2022/01/10 10:12:08;;;;;;;16.53;13.33;;;;;;;2.30;100.00;96374.16;5068614;27;105808;-56
2022/01/10 10:14:36;;;;;;;17.47;11.27;;;;;;;2.35;100.00;96373.59;5070383;27;101822;-56
2022/01/10 10:17:17;;;;;;;16.17;12.00;;;;;;;2.45;100.00;96373.97;5068873;27;104954;-56
2022/01/10 10:19:46;;;;;;;19.03;12.57;;;;;;;2.52;100.00;96372.97;5068264;27;105751;-55
2022/01/10 10:22:16;;;;;;;19.93;14.20;;;;;;;2.55;100.00;96382.28;5069095;27;102104;-56
2022/01/10 10:24:48;;;;;;;19.00;14.13;;;;;;;2.46;100.00;96381.66;5068762;27;104835;-56
2022/01/10 10:27:16;;;;;;;19.10;12.63;;;;;;;2.44;100.00;96382.88;5068597;27;105865;-57
2022/01/10 10:29:44;;;;;;;21.03;14.27;;;;;;;2.52;100.00;96385.31;5069317;27;101933;-57
2022/01/10 10:32:15;;;;;;;18.17;13.13;;;;;;;2.57;100.00;96382.91;5072047;27;104800;-55
2022/01/10 10:34:43;;;;;;;16.20;12.03;;;;;;;2.46;100.00;96386.13;5070525;27;101963;-57
2022/01/10 10:37:11;;;;;;;17.70;12.00;;;;;;;2.52;100.00;96390.56;5069793;27;102893;-56
2022/01/10 10:39:41;;;;;;;18.40;11.50;;;;;;;2.63;100.00;96395.22;5068051;27;105795;-56
2022/01/10 10:42:11;;;;;;;16.43;11.93;;;;;;;2.70;100.00;96409.16;5069010;27;101987;-56
2022/01/10 10:44:38;;;;;;;18.27;11.80;;;;;;;2.67;100.00;96405.09;5068782;27;105245;-55
2022/01/10 10:47:06;;;;;;;20.90;14.27;;;;;;;2.72;100.00;96409.75;5068208;27;105372;-56
2022/01/10 10:49:37;;;;;;;15.83;12.03;;;;;;;2.56;100.00;96410.94;5068668;27;101997;-56
2022/01/10 10:52:08;;;;;;;18.07;12.43;;;;;;;2.65;100.00;96416.81;5069738;27;102527;-56
2022/01/10 10:54:36;;;;;;;21.70;13.13;;;;;;;2.69;100.00;96418.03;5073059;27;103172;-56
2022/01/10 10:57:06;;;;;;;20.13;13.60;;;;;;;2.68;100.00;96414.59;5068665;27;106181;-56
2022/01/10 10:59:39;;;;;;;20.10;13.93;;;;;;;2.69;100.00;96423.28;5069262;27;102768;-56
2022/01/10 11:02:06;;;;;;;20.43;13.67;;;;;;;2.66;100.00;96421.88;5070016;27;101961;-56
2022/01/10 11:04:33;;;;;;;20.37;14.40;;;;;;;2.75;100.00;96427.75;5070018;27;102564;-56
2022/01/10 11:07:00;;;;;;;19.37;14.00;;;;;;;2.69;100.00;96424.09;5067916;27;106828;-55
2022/01/10 11:09:28;;;;;;;18.20;13.70;;;;;;;2.66;100.00;96428.94;5068581;27;101847;-54
2022/01/10 11:11:56;;;;;;;22.30;15.07;;;;;;;2.65;100.00;96430.75;5068453;27;105130;-56
2022/01/10 11:14:25;;;;;;;21.07;14.73;;;;;;;2.69;100.00;96439.03;5071431;27;102666;-55
2022/01/10 11:16:54;;;;;;;22.00;15.57;;;;;;;2.63;100.00;96432.75;5068458;27;105027;-56
2022/01/10 11:19:23;;;;;;;26.33;16.90;;;;;;;2.59;100.00;96447.31;5069046;27;102647;-56
2022/01/10 11:21:55;;;;;;;30.23;18.13;;;;;;;2.64;100.00;96438.84;5069705;27;102164;-55
2022/01/10 11:24:41;;;;;;;22.60;15.67;;;;;;;2.73;100.00;96442.91;5069548;27;102393;-56
2022/01/10 11:27:09;;;;;;;20.77;15.63;;;;;;;2.67;100.00;96448.94;5069102;27;102792;-55
2022/01/10 11:29:42;;;;;;;21.10;15.00;;;;;;;2.71;100.00;96442.25;5069735;27;102114;-56